Time;durP1;ratioP1;P1;durP2;ratioP2;P2;SDS_P1;SDS_P2;PMS_P1;PMS_P2;Temp;Humidity;BMP_temperature;BMP_pressure;BME280_temperature;BME280_humidity;BME280_pressure;Samples;Min_cycle;Max_cycle;Signal;HPM_P1;HPM_P2
2023/08/12 00:00:29;;;;;;;23.33;12.68;;;18.40;99.90;;;;;;6187881;23;20017;-75
2023/08/12 00:02:55;;;;;;;21.63;12.13;;;18.40;99.90;;;;;;6187855;23;20021;-75
2023/08/12 00:05:21;;;;;;;22.50;12.15;;;18.40;99.90;;;;;;6161276;23;20013;-75
2023/08/12 00:07:47;;;;;;;22.17;12.27;;;18.40;99.90;;;;;;6160961;23;20028;-75
2023/08/12 00:10:13;;;;;;;27.50;13.13;;;18.50;99.90;;;;;;6161119;23;20156;-75
2023/08/12 00:12:39;;;;;;;22.17;12.82;;;18.50;99.90;;;;;;6161103;23;20473;-75
2023/08/12 00:15:07;;;;;;;26.10;13.35;;;18.40;99.90;;;;;;6187786;23;20013;-75
2023/08/12 00:17:33;;;;;;;23.88;13.00;;;18.40;99.90;;;;;;6187698;23;20013;-75
2023/08/12 00:19:59;;;;;;;26.08;14.25;;;18.40;99.90;;;;;;6161061;23;20071;-75
2023/08/12 00:22:25;;;;;;;26.40;13.60;;;18.40;99.90;;;;;;6161018;23;20089;-75
2023/08/12 00:24:51;;;;;;;25.73;12.77;;;18.50;99.90;;;;;;6187458;23;20017;-75
2023/08/12 00:27:18;;;;;;;24.05;12.77;;;18.40;99.90;;;;;;6161375;23;20024;-75
2023/08/12 00:29:43;;;;;;;25.05;12.52;;;18.40;99.90;;;;;;6160953;23;20047;-75
2023/08/12 00:32:09;;;;;;;23.52;12.82;;;18.50;99.90;;;;;;6160877;23;20341;-75
2023/08/12 00:34:35;;;;;;;29.00;13.60;;;18.50;99.90;;;;;;6160855;23;20017;-75
2023/08/12 00:37:00;;;;;;;26.13;13.88;;;18.40;99.90;;;;;;6161648;23;20032;-75
2023/08/12 00:39:26;;;;;;;22.55;13.02;;;18.40;99.90;;;;;;6160932;23;20100;-75
2023/08/12 00:41:52;;;;;;;27.25;13.20;;;18.40;99.90;;;;;;6160776;23;20021;-75
2023/08/12 00:44:17;;;;;;;24.48;13.63;;;18.40;99.90;;;;;;6161148;23;20021;-76
2023/08/12 00:46:43;;;;;;;31.30;13.90;;;18.40;99.90;;;;;;6161355;23;20031;-76
2023/08/12 00:49:11;;;;;;;27.02;12.95;;;18.40;99.90;;;;;;6160846;23;20017;-76
2023/08/12 00:51:41;;;;;;;27.98;13.27;;;18.40;99.90;;;;;;6160792;23;20341;-75
2023/08/12 00:54:07;;;;;;;25.88;13.40;;;18.40;99.90;;;;;;6160682;23;20356;-75
2023/08/12 00:56:34;;;;;;;27.83;13.00;;;18.40;99.90;;;;;;6160479;23;20024;-75
2023/08/12 00:59:02;;;;;;;22.88;12.10;;;18.40;99.90;;;;;;6160754;23;20021;-75
2023/08/12 01:01:28;;;;;;;30.83;12.30;;;18.40;99.90;;;;;;6160603;23;20060;-75
2023/08/12 01:03:53;;;;;;;22.77;10.25;;;18.40;99.90;;;;;;6160425;23;20389;-75
2023/08/12 01:06:19;;;;;;;23.50;11.57;;;18.40;99.90;;;;;;6160482;23;20323;-75
2023/08/12 01:08:48;;;;;;;24.90;11.45;;;18.40;99.90;;;;;;6160725;23;20055;-75
2023/08/12 01:11:26;;;;;;;24.92;11.57;;;18.40;99.90;;;;;;6160585;23;20092;-75
2023/08/12 01:14:18;;;;;;;22.90;11.25;;;18.40;99.90;;;;;;6160077;23;20017;-75
2023/08/12 01:16:46;;;;;;;25.45;11.43;;;18.40;99.90;;;;;;6160726;23;20028;-75
2023/08/12 01:19:31;;;;;;;26.17;10.43;;;18.50;99.90;;;;;;6160562;23;20013;-75
2023/08/12 01:22:00;;;;;;;27.42;11.27;;;18.40;99.90;;;;;;6160479;23;20480;-75
2023/08/12 01:24:26;;;;;;;27.05;11.32;;;18.40;99.90;;;;;;6187041;23;20016;-75
2023/08/12 01:26:52;;;;;;;27.73;11.63;;;18.40;99.90;;;;;;6160445;23;20048;-75
2023/08/12 01:29:24;;;;;;;25.15;11.32;;;18.50;99.90;;;;;;6185280;23;20016;-75
2023/08/12 01:32:00;;;;;;;25.42;11.05;;;18.50;99.90;;;;;;6186554;23;20385;-75
2023/08/12 01:34:54;;;;;;;25.25;10.77;;;18.50;99.90;;;;;;6186891;23;20020;-75
2023/08/12 01:37:29;;;;;;;25.30;9.90;;;18.50;99.90;;;;;;6161455;23;20020;-75
2023/08/12 01:40:00;;;;;;;27.48;11.25;;;18.50;99.90;;;;;;6160118;23;20028;-75
2023/08/12 01:42:32;;;;;;;29.80;11.68;;;18.50;99.90;;;;;;6160148;23;20052;-75
2023/08/12 01:45:01;;;;;;;33.17;11.80;;;18.50;99.90;;;;;;6160293;23;20029;-75
2023/08/12 01:47:28;;;;;;;27.45;11.57;;;18.60;99.90;;;;;;6160275;23;20524;-75
2023/08/12 01:49:54;;;;;;;27.92;11.73;;;18.50;99.90;;;;;;6160232;23;20024;-75
2023/08/12 01:52:19;;;;;;;32.28;12.52;;;18.50;99.90;;;;;;6160081;23;20009;-75
2023/08/12 01:54:45;;;;;;;31.45;10.50;;;18.50;99.90;;;;;;6184960;23;20028;-75
2023/08/12 01:57:11;;;;;;;25.83;10.88;;;18.50;99.90;;;;;;6160143;23;20095;-75
2023/08/12 01:59:36;;;;;;;27.50;11.57;;;18.50;99.90;;;;;;6160096;23;20021;-75
2023/08/12 02:02:03;;;;;;;26.42;10.90;;;18.50;99.90;;;;;;6160082;23;20017;-75
2023/08/12 02:04:29;;;;;;;35.03;10.88;;;18.50;99.90;;;;;;6160092;23;20024;-75
2023/08/12 02:06:55;;;;;;;27.48;10.88;;;18.50;99.90;;;;;;6159868;23;20024;-75
2023/08/12 02:09:22;;;;;;;29.10;11.65;;;18.50;99.90;;;;;;6159963;23;20024;-75
2023/08/12 02:11:49;;;;;;;30.27;11.18;;;18.50;99.90;;;;;;6159905;23;20021;-75
2023/08/12 02:14:14;;;;;;;28.42;12.32;;;18.50;99.90;;;;;;6186617;23;20017;-75
2023/08/12 02:16:40;;;;;;;31.15;11.65;;;18.60;99.90;;;;;;6159795;23;20340;-75
2023/08/12 02:19:06;;;;;;;30.35;11.82;;;18.50;99.90;;;;;;6160059;23;20075;-75
2023/08/12 02:21:31;;;;;;;31.15;13.07;;;18.60;99.90;;;;;;6159983;23;20052;-75
2023/08/12 02:23:57;;;;;;;28.75;11.95;;;18.60;99.90;;;;;;6159874;23;20105;-75
2023/08/12 02:26:23;;;;;;;30.95;11.85;;;18.60;99.90;;;;;;6159984;23;20017;-75
2023/08/12 02:28:48;;;;;;;36.10;12.90;;;18.50;99.90;;;;;;6159870;23;20040;-75
2023/08/12 02:31:15;;;;;;;30.45;11.80;;;18.50;99.90;;;;;;6159841;23;20028;-75
2023/08/12 02:33:41;;;;;;;28.85;11.98;;;18.50;99.90;;;;;;6159739;23;20020;-75
2023/08/12 02:36:07;;;;;;;32.03;11.20;;;18.50;99.90;;;;;;6159789;23;20021;-75
2023/08/12 02:38:33;;;;;;;26.80;11.75;;;18.40;99.90;;;;;;6159866;23;20044;-75
2023/08/12 02:40:58;;;;;;;32.35;12.65;;;18.40;99.90;;;;;;6159855;23;20336;-75
2023/08/12 02:43:24;;;;;;;28.08;12.07;;;18.40;99.90;;;;;;6186465;23;20091;-75
2023/08/12 02:45:50;;;;;;;36.60;12.65;;;18.40;99.90;;;;;;6159765;23;20017;-75
2023/08/12 02:48:18;;;;;;;34.38;12.50;;;18.40;99.90;;;;;;6159817;23;20017;-75
2023/08/12 02:50:44;;;;;;;29.23;12.65;;;18.40;99.90;;;;;;6159644;23;20059;-75
2023/08/12 02:53:10;;;;;;;33.30;12.98;;;18.40;99.90;;;;;;6186227;23;20016;-75
2023/08/12 02:55:37;;;;;;;34.58;12.80;;;18.40;99.90;;;;;;6159691;23;20024;-75
2023/08/12 02:58:03;;;;;;;30.45;12.82;;;18.40;99.90;;;;;;6159649;23;20028;-75
2023/08/12 03:00:29;;;;;;;34.92;13.27;;;18.40;99.90;;;;;;6186825;23;20045;-75
2023/08/12 03:02:55;;;;;;;33.17;12.98;;;18.40;99.90;;;;;;6159709;23;20036;-75
2023/08/12 03:05:22;;;;;;;33.53;13.10;;;18.40;99.90;;;;;;6159657;23;20144;-75
2023/08/12 03:07:47;;;;;;;37.10;14.60;;;18.40;99.90;;;;;;6159632;23;20088;-75
2023/08/12 03:10:13;;;;;;;31.27;13.63;;;18.40;99.90;;;;;;6159738;23;20059;-75
2023/08/12 03:12:42;;;;;;;33.45;13.88;;;18.40;99.90;;;;;;6159450;23;20101;-75
2023/08/12 03:15:08;;;;;;;36.65;15.65;;;18.40;99.90;;;;;;6159744;23;20052;-75
2023/08/12 03:17:34;;;;;;;32.92;14.18;;;18.30;99.90;;;;;;6185964;23;20453;-75
2023/08/12 03:20:00;;;;;;;37.10;14.00;;;18.30;99.90;;;;;;6185927;23;20031;-75
2023/08/12 03:22:27;;;;;;;31.38;13.52;;;18.30;99.90;;;;;;6159507;23;20036;-75
2023/08/12 03:24:53;;;;;;;37.58;14.30;;;18.40;99.90;;;;;;6159478;23;20084;-75
2023/08/12 03:27:18;;;;;;;33.97;14.63;;;18.40;99.90;;;;;;6160586;23;20452;-75
2023/08/12 03:29:44;;;;;;;31.13;14.52;;;18.40;99.90;;;;;;6187882;23;20024;-75
2023/08/12 03:32:09;;;;;;;35.20;14.50;;;18.30;99.90;;;;;;6161762;23;20310;-74
2023/08/12 03:34:35;;;;;;;36.92;14.70;;;18.30;99.90;;;;;;6188201;23;20048;-75
2023/08/12 03:37:01;;;;;;;37.45;13.85;;;18.40;99.90;;;;;;6161478;23;20013;-75
2023/08/12 03:39:26;;;;;;;40.10;15.93;;;18.30;99.90;;;;;;6161491;23;20024;-75
2023/08/12 03:41:53;;;;;;;31.35;14.20;;;18.30;99.90;;;;;;6161504;23;20096;-75
2023/08/12 03:44:18;;;;;;;34.15;15.57;;;18.30;99.90;;;;;;6161451;23;20437;-75
2023/08/12 03:46:44;;;;;;;34.00;14.15;;;18.20;99.90;;;;;;6161469;23;20020;-75
2023/08/12 03:49:10;;;;;;;30.42;13.02;;;18.20;99.90;;;;;;6187717;23;20012;-75
2023/08/12 03:51:35;;;;;;;32.90;14.90;;;18.10;99.90;;;;;;6161285;23;20052;-75
2023/08/12 03:54:04;;;;;;;33.47;14.68;;;18.20;99.90;;;;;;6161266;23;20024;-76
2023/08/12 03:56:32;;;;;;;39.20;13.90;;;18.20;99.90;;;;;;6187627;23;20021;-75
2023/08/12 03:58:58;;;;;;;34.28;13.10;;;18.20;99.90;;;;;;6161287;23;20031;-75
2023/08/12 04:01:24;;;;;;;34.92;14.68;;;18.10;99.90;;;;;;6161328;23;20025;-75
2023/08/12 04:03:50;;;;;;;32.50;14.13;;;18.20;99.90;;;;;;6187536;23;20017;-75
2023/08/12 04:06:15;;;;;;;33.63;14.50;;;18.10;99.90;;;;;;6161117;23;20512;-75
2023/08/12 04:08:41;;;;;;;35.33;15.02;;;18.20;99.90;;;;;;6161214;23;20088;-75
2023/08/12 04:11:06;;;;;;;32.28;14.48;;;18.20;99.90;;;;;;6160979;23;20020;-75
2023/08/12 04:13:32;;;;;;;32.13;15.23;;;18.10;99.90;;;;;;6160994;23;20087;-75
2023/08/12 04:15:58;;;;;;;28.75;14.00;;;18.20;99.90;;;;;;6160981;23;20024;-75
2023/08/12 04:18:23;;;;;;;31.02;13.52;;;18.20;99.90;;;;;;6160544;23;20021;-75
2023/08/12 04:20:50;;;;;;;31.58;14.05;;;18.20;99.90;;;;;;6159715;23;20021;-75
2023/08/12 04:23:19;;;;;;;30.45;13.80;;;18.20;99.90;;;;;;6160598;23;20025;-75
2023/08/12 04:25:48;;;;;;;33.72;13.77;;;18.20;99.90;;;;;;6160976;23;20052;-75
2023/08/12 04:28:15;;;;;;;31.75;14.55;;;18.10;99.90;;;;;;6160927;23;20079;-75
2023/08/12 04:30:45;;;;;;;26.52;13.48;;;18.10;99.90;;;;;;6160990;23;20028;-75
2023/08/12 04:33:13;;;;;;;26.92;13.52;;;18.10;99.90;;;;;;6160808;23;20025;-75
2023/08/12 04:35:40;;;;;;;29.67;13.23;;;18.20;99.90;;;;;;6160900;23;20013;-75
2023/08/12 04:38:05;;;;;;;33.53;14.27;;;18.10;99.90;;;;;;6160221;23;20056;-75
2023/08/12 04:40:32;;;;;;;32.97;13.43;;;18.10;99.90;;;;;;6159877;23;20071;-75
2023/08/12 04:42:59;;;;;;;24.40;12.02;;;18.10;99.90;;;;;;6159427;23;20040;-75
2023/08/12 04:45:25;;;;;;;26.70;13.05;;;18.20;99.90;;;;;;6160358;23;20021;-75
2023/08/12 04:47:50;;;;;;;27.42;13.45;;;18.20;99.90;;;;;;6160737;23;20063;-75
2023/08/12 04:50:16;;;;;;;27.75;13.52;;;18.20;99.90;;;;;;6160684;23;20103;-75
2023/08/12 04:52:41;;;;;;;27.73;13.07;;;18.20;99.90;;;;;;6187209;23;20092;-75
2023/08/12 04:55:08;;;;;;;30.88;14.02;;;18.30;99.90;;;;;;6186813;23;20092;-75
2023/08/12 04:57:33;;;;;;;27.88;13.50;;;18.30;99.90;;;;;;6187325;23;20017;-75
2023/08/12 04:59:59;;;;;;;26.23;13.55;;;18.20;99.90;;;;;;6160666;23;20071;-75
2023/08/12 05:02:24;;;;;;;26.58;13.25;;;18.20;99.90;;;;;;6160590;23;20015;-75
2023/08/12 05:04:51;;;;;;;24.77;13.38;;;18.30;99.90;;;;;;6185438;23;20013;-75
2023/08/12 05:07:19;;;;;;;22.63;11.90;;;18.30;99.90;;;;;;6186749;23;20013;-75
2023/08/12 05:09:46;;;;;;;26.13;12.55;;;18.30;99.90;;;;;;6160527;23;20183;-75
2023/08/12 05:12:12;;;;;;;28.63;13.32;;;18.40;99.90;;;;;;6160418;23;20464;-75
2023/08/12 05:14:38;;;;;;;24.70;12.95;;;18.40;99.90;;;;;;6160318;23;20104;-75
2023/08/12 05:17:04;;;;;;;31.48;13.90;;;18.40;99.90;;;;;;6160458;23;20096;-75
2023/08/12 05:19:30;;;;;;;25.08;13.30;;;18.50;99.90;;;;;;6160344;23;20041;-75
2023/08/12 05:21:56;;;;;;;24.67;12.30;;;18.50;99.90;;;;;;6160044;23;20525;-75
2023/08/12 05:24:22;;;;;;;20.58;12.30;;;18.50;99.90;;;;;;6160404;23;20052;-75
2023/08/12 05:26:50;;;;;;;21.48;12.18;;;18.50;99.90;;;;;;6186927;23;20016;-75
2023/08/12 05:29:16;;;;;;;21.70;11.88;;;18.60;99.90;;;;;;6160256;23;20465;-75
2023/08/12 05:31:41;;;;;;;25.80;12.50;;;18.60;99.90;;;;;;6160379;23;20052;-75
2023/08/12 05:34:07;;;;;;;23.30;11.50;;;18.70;99.90;;;;;;6160159;23;20047;-75
2023/08/12 05:36:32;;;;;;;22.48;11.55;;;18.70;99.90;;;;;;6160269;23;20009;-76
2023/08/12 05:38:59;;;;;;;18.45;12.05;;;18.70;99.90;;;;;;6158535;23;20017;-75
2023/08/12 05:41:24;;;;;;;22.77;11.10;;;18.80;99.90;;;;;;6160179;23;20086;-75
2023/08/12 05:43:50;;;;;;;18.20;11.18;;;18.90;99.90;;;;;;6160200;23;20417;-75
2023/08/12 05:46:16;;;;;;;25.58;12.18;;;19.00;99.90;;;;;;6186536;23;20373;-75
2023/08/12 05:48:41;;;;;;;23.45;11.43;;;19.00;99.90;;;;;;6160223;23;20020;-75
2023/08/12 05:51:07;;;;;;;19.52;11.63;;;19.00;99.90;;;;;;6159571;23;20025;-75
2023/08/12 05:53:35;;;;;;;20.45;10.18;;;19.00;99.90;;;;;;6159891;23;20472;-75
2023/08/12 05:56:01;;;;;;;22.15;11.20;;;19.00;99.90;;;;;;6160077;23;20017;-75
2023/08/12 05:58:27;;;;;;;22.65;11.57;;;19.00;99.90;;;;;;6160002;23;20020;-75
2023/08/12 06:00:52;;;;;;;22.60;10.77;;;19.00;99.90;;;;;;6160029;23;20323;-75
2023/08/12 06:03:18;;;;;;;19.45;10.25;;;19.10;99.90;;;;;;6160398;23;20024;-75
2023/08/12 06:05:46;;;;;;;20.70;11.13;;;19.10;99.90;;;;;;6159728;23;20044;-76
2023/08/12 06:08:15;;;;;;;20.40;10.15;;;19.20;99.90;;;;;;6186707;23;20103;-75
2023/08/12 06:10:41;;;;;;;24.27;10.50;;;19.10;99.90;;;;;;6158876;23;20395;-75
2023/08/12 06:13:06;;;;;;;23.05;10.63;;;19.10;99.90;;;;;;6186210;23;20067;-74
2023/08/12 06:15:36;;;;;;;19.27;9.80;;;19.20;99.90;;;;;;6159648;23;20389;-80
2023/08/12 06:18:02;;;;;;;19.80;11.35;;;19.20;99.90;;;;;;6159472;23;20009;-74
2023/08/12 06:20:28;;;;;;;21.30;10.40;;;19.20;99.90;;;;;;6186309;23;20013;-74
2023/08/12 06:23:06;;;;;;;21.38;10.70;;;19.20;99.90;;;;;;5152280;27;20680;-74
2023/08/12 06:25:32;;;;;;;16.73;9.55;;;19.20;99.90;;;;;;5133747;27;20524;-74
2023/08/12 06:28:17;;;;;;;17.50;9.75;;;19.30;99.90;;;;;;5128523;27;20163;-86
2023/08/12 06:30:48;;;;;;;17.45;10.07;;;19.30;99.90;;;;;;5118055;27;20485;-75
2023/08/12 06:33:14;;;;;;;21.98;11.48;;;19.30;99.90;;;;;;5152369;27;20043;-74
2023/08/12 06:35:41;;;;;;;17.60;10.38;;;19.30;99.90;;;;;;5146476;27;20375;-74
2023/08/12 06:38:08;;;;;;;17.63;10.23;;;19.30;99.90;;;;;;5131558;28;20032;-75
2023/08/12 06:40:33;;;;;;;23.92;10.07;;;19.30;99.90;;;;;;5112914;28;20478;-76
2023/08/12 06:42:59;;;;;;;16.80;9.35;;;19.30;99.90;;;;;;5113124;28;20138;-75
2023/08/12 06:45:25;;;;;;;19.58;10.55;;;19.30;99.90;;;;;;5113075;28;20074;-76
2023/08/12 06:47:51;;;;;;;19.25;11.02;;;19.30;99.90;;;;;;5113028;28;20376;-74
2023/08/12 06:50:19;;;;;;;19.73;11.18;;;19.40;99.90;;;;;;5131384;28;20043;-75
2023/08/12 06:52:45;;;;;;;17.42;10.77;;;19.30;99.90;;;;;;5112679;28;20043;-76
2023/08/12 06:55:10;;;;;;;19.92;11.23;;;19.30;99.90;;;;;;5153801;27;20044;-77
2023/08/12 06:57:36;;;;;;;18.50;10.80;;;19.30;99.90;;;;;;5121871;27;20047;-76
2023/08/12 07:00:03;;;;;;;18.33;10.98;;;19.30;99.90;;;;;;5118810;28;20102;-76
2023/08/12 07:02:28;;;;;;;19.75;10.68;;;19.30;99.90;;;;;;5123905;27;20042;-75
2023/08/12 07:04:54;;;;;;;16.90;10.80;;;19.30;99.90;;;;;;5133894;27;20039;-76
2023/08/12 07:07:19;;;;;;;20.70;11.48;;;19.30;99.90;;;;;;5124195;27;20039;-76
2023/08/12 07:09:45;;;;;;;21.77;11.15;;;19.30;99.90;;;;;;5158195;27;20043;-75
2023/08/12 07:12:10;;;;;;;23.20;11.32;;;19.40;99.90;;;;;;5122104;27;20088;-75
2023/08/12 07:14:36;;;;;;;21.23;11.63;;;19.30;99.90;;;;;;5121421;27;20043;-76
2023/08/12 07:17:02;;;;;;;23.58;11.43;;;19.30;99.90;;;;;;5124042;27;20129;-76
2023/08/12 07:19:27;;;;;;;22.38;11.50;;;19.40;99.90;;;;;;5133312;27;20059;-76
2023/08/12 07:21:54;;;;;;;19.98;11.18;;;19.40;99.90;;;;;;5121401;27;20101;-76
2023/08/12 07:24:22;;;;;;;23.67;12.75;;;19.40;99.90;;;;;;5157595;27;20051;-76
2023/08/12 07:26:48;;;;;;;21.73;11.80;;;19.40;99.90;;;;;;5114690;27;20057;-76
2023/08/12 07:29:47;;;;;;;20.77;11.82;;;19.40;99.90;;;;;;5121161;28;20052;-76
2023/08/12 07:32:06;;;;;;;17.43;11.80;;;19.50;99.90;;;;;;5126946;27;20092;-76
2023/08/12 07:34:31;;;;;;;20.27;11.15;;;19.40;99.90;;;;;;5098369;27;20286;-77
2023/08/12 07:36:57;;;;;;;21.52;12.45;;;19.40;99.90;;;;;;5109479;28;20485;-76
2023/08/12 07:39:22;;;;;;;22.63;12.27;;;19.40;99.90;;;;;;5126774;27;20057;-76
2023/08/12 07:41:48;;;;;;;19.75;11.85;;;19.40;99.90;;;;;;5117514;27;20051;-76
2023/08/12 07:44:13;;;;;;;21.67;12.00;;;19.50;99.90;;;;;;5128270;27;20039;-76
2023/08/12 07:46:39;;;;;;;19.85;12.18;;;19.50;99.90;;;;;;5110204;27;20047;-76
2023/08/12 07:49:05;;;;;;;19.98;12.63;;;19.60;99.90;;;;;;5125102;27;20428;-77
2023/08/12 07:51:30;;;;;;;19.88;12.27;;;19.70;99.90;;;;;;5106558;27;20126;-76
2023/08/12 07:53:56;;;;;;;20.45;12.40;;;19.70;99.90;;;;;;5106237;27;20053;-76
2023/08/12 07:56:21;;;;;;;19.20;12.98;;;19.70;99.90;;;;;;5125369;27;20045;-76
2023/08/12 07:58:47;;;;;;;22.58;12.73;;;19.70;99.90;;;;;;5122865;27;20367;-76
2023/08/12 08:01:13;;;;;;;20.27;12.63;;;19.70;99.90;;;;;;5126144;27;20047;-76
2023/08/12 08:03:39;;;;;;;23.08;12.85;;;19.70;99.90;;;;;;5127471;27;20500;-76
2023/08/12 08:06:05;;;;;;;22.05;12.18;;;19.70;99.90;;;;;;5111643;27;20046;-76
2023/08/12 08:08:30;;;;;;;18.05;13.05;;;19.70;99.90;;;;;;5104008;28;20483;-76
2023/08/12 08:10:56;;;;;;;23.98;12.75;;;19.70;99.90;;;;;;5097910;28;20051;-75
2023/08/12 08:13:22;;;;;;;20.77;13.55;;;19.80;99.90;;;;;;5119223;27;20039;-74
2023/08/12 08:15:47;;;;;;;24.58;14.45;;;19.80;99.90;;;;;;5142983;27;20047;-75
2023/08/12 08:18:13;;;;;;;22.92;15.25;;;19.80;99.90;;;;;;5109387;27;20027;-75
2023/08/12 08:20:42;;;;;;;23.73;14.45;;;19.80;99.90;;;;;;5107773;27;20455;-76
2023/08/12 08:23:08;;;;;;;25.00;14.77;;;19.80;99.90;;;;;;5125046;27;20086;-75
2023/08/12 08:25:33;;;;;;;23.38;14.73;;;19.80;99.90;;;;;;5109056;27;20079;-74
2023/08/12 08:27:59;;;;;;;27.85;16.90;;;19.70;99.90;;;;;;5100244;28;20098;-74
2023/08/12 08:30:25;;;;;;;28.52;16.92;;;19.80;99.90;;;;;;5143098;27;20031;-74
2023/08/12 08:32:51;;;;;;;27.85;15.82;;;19.70;99.90;;;;;;5108584;27;20498;-75
2023/08/12 08:35:17;;;;;;;27.45;16.13;;;19.70;99.90;;;;;;5106216;28;20058;-75
2023/08/12 08:37:42;;;;;;;30.15;17.17;;;19.70;99.90;;;;;;5105510;27;20043;-75
2023/08/12 08:40:08;;;;;;;26.50;17.83;;;19.70;99.90;;;;;;5106340;27;20371;-75
2023/08/12 08:42:34;;;;;;;28.20;16.65;;;19.70;99.90;;;;;;5106256;27;20048;-75
2023/08/12 08:45:04;;;;;;;28.15;17.40;;;19.70;99.90;;;;;;5106553;28;20054;-76
2023/08/12 08:47:30;;;;;;;33.13;17.98;;;19.70;99.90;;;;;;5106009;28;20063;-75
2023/08/12 08:49:58;;;;;;;28.35;18.27;;;19.70;99.90;;;;;;5096989;28;20047;-75
2023/08/12 08:52:27;;;;;;;31.48;18.38;;;19.70;99.90;;;;;;5096692;28;20414;-75
2023/08/12 08:54:53;;;;;;;30.15;19.02;;;19.70;99.90;;;;;;5097090;28;20051;-75
2023/08/12 08:57:19;;;;;;;28.42;17.83;;;19.70;99.90;;;;;;5114418;28;20062;-75
2023/08/12 08:59:45;;;;;;;29.70;17.75;;;19.60;99.90;;;;;;5122355;27;20088;-75
2023/08/12 09:02:17;;;;;;;26.92;17.65;;;19.60;99.90;;;;;;5114793;27;20039;-74
2023/08/12 09:04:45;;;;;;;29.58;18.00;;;19.70;99.90;;;;;;5114136;27;20043;-74
2023/08/12 09:07:11;;;;;;;34.20;20.38;;;19.60;99.90;;;;;;5110658;27;20104;-74
2023/08/12 09:09:39;;;;;;;31.40;18.95;;;19.70;99.90;;;;;;5100771;28;20043;-74
2023/08/12 09:12:12;;;;;;;34.70;19.27;;;19.70;99.90;;;;;;5100102;27;20051;-74
2023/08/12 09:14:38;;;;;;;;;;;19.70;99.90;;;;;;5104428;27;20104;-74
2023/08/12 09:17:03;;;;;;;26.48;16.95;;;19.70;99.90;;;;;;5107560;28;20272;-75
2023/08/12 09:19:29;;;;;;;28.95;18.58;;;19.80;99.90;;;;;;5114742;28;20044;-73
2023/08/12 09:21:55;;;;;;;31.48;19.77;;;19.70;99.90;;;;;;5090677;28;20134;-74
2023/08/12 09:24:24;;;;;;;30.08;20.63;;;19.70;99.90;;;;;;5093112;28;20488;-74
2023/08/12 09:26:55;;;;;;;28.83;19.05;;;19.70;99.90;;;;;;5092893;28;20095;-73
2023/08/12 09:29:31;;;;;;;35.55;21.27;;;19.80;99.90;;;;;;5092744;28;20043;-73
2023/08/12 09:32:09;;;;;;;28.55;19.20;;;19.70;99.90;;;;;;5092701;28;20056;-74
2023/08/12 09:34:34;;;;;;;30.58;20.52;;;19.80;99.90;;;;;;5092662;28;20106;-73
2023/08/12 09:37:00;;;;;;;28.23;18.27;;;19.70;99.90;;;;;;5092931;28;20052;-73
2023/08/12 09:39:26;;;;;;;35.97;19.20;;;19.80;99.90;;;;;;5094194;28;20377;-75
2023/08/12 09:41:51;;;;;;;31.08;20.15;;;19.70;99.90;;;;;;5092507;28;20072;-74
2023/08/12 09:44:17;;;;;;;36.08;20.20;;;19.60;99.90;;;;;;5092087;28;20043;-74
2023/08/12 09:46:43;;;;;;;30.45;19.05;;;19.70;99.90;;;;;;5092649;28;20040;-73
2023/08/12 09:49:11;;;;;;;33.33;20.25;;;19.60;99.90;;;;;;5093891;28;20486;-74
2023/08/12 09:51:37;;;;;;;29.65;19.67;;;19.60;99.90;;;;;;5092539;28;20051;-72
2023/08/12 09:54:03;;;;;;;34.45;20.73;;;19.60;99.90;;;;;;5093638;28;20047;-73
2023/08/12 09:56:33;;;;;;;35.70;21.63;;;19.60;99.90;;;;;;5092185;28;20531;-73
2023/08/12 09:59:00;;;;;;;30.08;20.10;;;19.50;99.90;;;;;;5093548;28;20047;-73
2023/08/12 10:01:27;;;;;;;29.00;19.08;;;19.60;99.90;;;;;;5092453;28;20457;-74
2023/08/12 10:03:54;;;;;;;34.40;19.98;;;19.60;99.90;;;;;;5093512;28;20110;-73
2023/08/12 10:06:20;;;;;;;26.70;18.50;;;19.70;99.90;;;;;;5093558;28;20058;-73
2023/08/12 10:08:46;;;;;;;30.00;19.50;;;19.60;99.90;;;;;;5092498;28;20043;-73
2023/08/12 10:11:13;;;;;;;30.88;20.27;;;19.60;99.90;;;;;;5092192;28;20047;-72
2023/08/12 10:13:40;;;;;;;32.35;20.48;;;19.80;99.90;;;;;;5093337;28;20109;-71
2023/08/12 10:16:09;;;;;;;31.33;20.40;;;19.70;99.90;;;;;;5092145;28;20074;-74
2023/08/12 10:18:36;;;;;;;29.52;19.23;;;19.70;99.90;;;;;;5092275;28;20046;-74
2023/08/12 10:21:05;;;;;;;29.90;20.60;;;19.70;99.90;;;;;;5093252;28;20063;-74
2023/08/12 10:23:31;;;;;;;26.02;19.35;;;19.80;99.90;;;;;;5095499;28;20048;-73
2023/08/12 10:25:59;;;;;;;29.25;19.40;;;19.80;99.90;;;;;;5095492;28;20092;-73
2023/08/12 10:28:25;;;;;;;29.77;21.35;;;19.90;99.90;;;;;;5095641;28;20052;-73
2023/08/12 10:30:52;;;;;;;30.63;21.75;;;20.00;99.90;;;;;;5095266;28;20070;-72
2023/08/12 10:33:18;;;;;;;30.98;20.88;;;20.10;99.90;;;;;;5100809;28;20414;-74
2023/08/12 10:35:48;;;;;;;30.95;21.45;;;20.00;99.90;;;;;;5095283;28;20050;-74
2023/08/12 10:38:17;;;;;;;33.75;21.48;;;20.10;99.90;;;;;;5113849;28;20035;-73
2023/08/12 10:40:44;;;;;;;29.58;20.35;;;20.00;99.90;;;;;;5115750;28;20051;-74
2023/08/12 10:43:11;;;;;;;29.60;20.67;;;20.10;99.90;;;;;;5115565;28;20402;-74
2023/08/12 10:45:49;;;;;;;29.95;20.67;;;20.20;99.90;;;;;;5115596;28;20426;-74
2023/08/12 10:48:25;;;;;;;28.92;19.60;;;20.20;99.90;;;;;;5134335;28;20184;-72
2023/08/12 10:50:59;;;;;;;30.65;18.88;;;20.40;99.90;;;;;;5133899;28;20050;-73
2023/08/12 10:53:35;;;;;;;25.77;18.02;;;20.20;99.90;;;;;;5134137;28;20047;-74
2023/08/12 10:56:04;;;;;;;24.65;17.80;;;20.50;99.90;;;;;;5115770;28;20092;-74
2023/08/12 10:58:34;;;;;;;17.77;11.80;;;20.50;99.90;;;;;;5115682;28;20054;-74
2023/08/12 11:01:00;;;;;;;6.35;2.63;;;20.40;99.90;;;;;;5115361;28;20141;-74
2023/08/12 11:03:31;;;;;;;7.10;2.42;;;19.80;99.90;;;;;;5115355;28;20130;-74
2023/08/12 11:05:59;;;;;;;8.35;2.40;;;19.40;99.90;;;;;;5115424;28;20446;-74
2023/08/12 11:08:27;;;;;;;8.00;2.08;;;19.20;99.90;;;;;;5103928;28;20050;-74
2023/08/12 11:10:56;;;;;;;6.47;2.15;;;19.10;99.90;;;;;;5099055;28;20043;-73
2023/08/12 11:13:21;;;;;;;5.65;2.17;;;18.90;99.90;;;;;;5098799;28;20043;-74
2023/08/12 11:15:47;;;;;;;8.52;2.47;;;18.80;99.90;;;;;;5098777;28;20040;-74
2023/08/12 11:18:16;;;;;;;7.13;2.42;;;18.80;99.90;;;;;;5098573;28;20136;-73
2023/08/12 11:20:42;;;;;;;7.38;2.67;;;18.70;99.90;;;;;;5116939;28;20043;-74
2023/08/12 11:23:09;;;;;;;9.15;2.95;;;18.70;99.90;;;;;;5098317;28;20126;-74
2023/08/12 11:25:37;;;;;;;7.15;2.75;;;18.70;99.90;;;;;;5117087;28;20046;-74
2023/08/12 11:28:06;;;;;;;5.90;2.30;;;18.70;99.90;;;;;;5118110;27;20047;-74
2023/08/12 11:30:38;;;;;;;5.47;2.47;;;18.90;99.90;;;;;;5098771;28;20070;-76
2023/08/12 11:33:04;;;;;;;5.83;2.03;;;18.90;99.90;;;;;;5116753;28;20047;-74
2023/08/12 11:35:30;;;;;;;7.60;2.20;;;18.90;99.90;;;;;;5098390;28;20044;-74
2023/08/12 11:37:59;;;;;;;7.28;2.30;;;18.80;99.90;;;;;;5098318;28;20040;-74
2023/08/12 11:40:27;;;;;;;8.40;2.60;;;18.80;99.90;;;;;;5098411;28;20092;-74
2023/08/12 11:43:09;;;;;;;7.43;2.60;;;18.80;99.90;;;;;;5098141;28;20044;-74
2023/08/12 11:45:37;;;;;;;7.60;2.42;;;18.80;99.90;;;;;;5100839;28;20069;-75
2023/08/12 11:48:04;;;;;;;8.63;2.83;;;18.70;99.90;;;;;;5109867;27;20046;-74
2023/08/12 11:50:30;;;;;;;6.25;2.17;;;18.60;99.90;;;;;;5106730;27;20043;-74
2023/08/12 11:52:56;;;;;;;9.65;2.30;;;18.50;99.90;;;;;;5107186;28;20505;-74
2023/08/12 11:55:22;;;;;;;6.47;2.00;;;18.40;99.90;;;;;;5128204;27;20066;-75
2023/08/12 11:57:51;;;;;;;7.60;2.10;;;18.40;99.90;;;;;;5108607;27;20043;-74
2023/08/12 12:00:18;;;;;;;7.00;2.60;;;18.40;99.90;;;;;;5098488;27;20104;-75
2023/08/12 12:02:53;;;;;;;7.20;2.53;;;18.40;99.90;;;;;;5109000;28;20082;-75
2023/08/12 12:05:22;;;;;;;8.90;2.53;;;18.40;99.90;;;;;;5109707;27;20068;-75
2023/08/12 12:07:49;;;;;;;9.98;2.17;;;18.40;99.90;;;;;;5106498;27;20047;-74
2023/08/12 12:10:35;;;;;;;7.63;2.20;;;18.50;99.90;;;;;;5124907;27;20039;-74
2023/08/12 12:13:03;;;;;;;9.20;1.83;;;18.50;99.90;;;;;;5124943;27;20035;-74
2023/08/12 12:15:29;;;;;;;5.85;2.00;;;18.40;99.90;;;;;;5127730;27;20039;-75
2023/08/12 12:17:55;;;;;;;6.80;2.42;;;18.50;99.90;;;;;;5102488;28;20552;-75
2023/08/12 12:20:21;;;;;;;6.93;2.50;;;18.50;99.90;;;;;;5129457;27;20513;-75
2023/08/12 12:22:48;;;;;;;10.00;2.30;;;18.50;99.90;;;;;;5121635;27;20087;-74
2023/08/12 12:25:18;;;;;;;6.15;2.13;;;18.50;99.90;;;;;;5115681;28;20131;-74
2023/08/12 12:27:45;;;;;;;8.70;2.00;;;18.60;99.90;;;;;;5105272;27;20047;-74
2023/08/12 12:30:13;;;;;;;5.95;2.13;;;18.60;99.90;;;;;;5103354;27;20043;-75